createdAt,value
2023-05-14T00:01:37.465Z,10.20
2023-05-14T00:04:41.196Z,8.00
2023-05-14T00:07:43.607Z,8.30
2023-05-14T00:10:45.921Z,9.48
2023-05-14T00:13:48.286Z,8.13
2023-05-14T00:16:50.514Z,9.57
2023-05-14T00:19:53.153Z,8.23
2023-05-14T00:22:55.604Z,9.45
2023-05-14T00:25:57.706Z,10.30
2023-05-14T00:29:00.123Z,7.90
2023-05-14T00:32:03.096Z,7.63
2023-05-14T00:35:05.820Z,12.50
2023-05-14T00:38:08.396Z,10.32
2023-05-14T00:41:10.909Z,8.63
2023-05-14T00:44:13.064Z,10.93
2023-05-14T00:47:15.590Z,8.85
2023-05-14T00:50:18.394Z,8.43
2023-05-14T00:53:23.779Z,10.45
2023-05-14T00:56:27.855Z,10.60
2023-05-14T00:59:31.184Z,9.43
2023-05-14T01:02:33.351Z,9.02
2023-05-14T01:06:14.377Z,9.68
2023-05-14T01:12:18.622Z,8.65
2023-05-14T01:15:30.794Z,10.55
2023-05-14T01:18:33.617Z,9.20
2023-05-14T01:21:43.833Z,10.52
2023-05-14T01:24:45.746Z,9.15
2023-05-14T01:28:19.925Z,8.70
2023-05-14T01:31:28.361Z,9.32
2023-05-14T01:34:31.964Z,10.32
2023-05-14T01:37:35.260Z,11.50
2023-05-14T01:40:37.881Z,10.65
2023-05-14T01:43:40.774Z,8.73
2023-05-14T01:46:42.944Z,9.90
2023-05-14T01:49:44.979Z,9.15
2023-05-14T01:52:48.465Z,10.90
2023-05-14T01:55:50.407Z,8.65
2023-05-14T01:58:52.691Z,8.45
2023-05-14T02:01:54.638Z,9.35
2023-05-14T02:04:56.536Z,10.15
2023-05-14T02:07:58.945Z,11.45
2023-05-14T02:11:00.970Z,11.95
2023-05-14T02:14:02.768Z,9.40
2023-05-14T02:17:05.239Z,12.20
2023-05-14T02:20:10.278Z,8.88
2023-05-14T02:23:12.334Z,10.68
2023-05-14T02:26:14.365Z,10.15
2023-05-14T02:29:16.323Z,8.65
2023-05-14T02:32:18.538Z,9.95
2023-05-14T02:35:20.636Z,9.05
2023-05-14T02:38:23.265Z,9.73
2023-05-14T02:41:25.305Z,8.60
2023-05-14T02:44:27.076Z,10.63
2023-05-14T02:47:29.600Z,9.65
2023-05-14T02:50:31.673Z,9.95
2023-05-14T02:53:33.849Z,9.02
2023-05-14T02:56:35.936Z,9.02
2023-05-14T02:59:37.743Z,13.27
2023-05-14T03:02:41.057Z,12.80
2023-05-14T03:05:43.540Z,11.35
2023-05-14T03:08:45.992Z,8.63
2023-05-14T03:11:48.206Z,8.73
2023-05-14T03:14:50.167Z,12.13
2023-05-14T03:17:52.271Z,13.85
2023-05-14T03:20:54.303Z,10.70
2023-05-14T03:23:57.440Z,9.18
2023-05-14T03:26:59.330Z,12.32
2023-05-14T03:30:01.222Z,10.40
2023-05-14T03:33:02.962Z,10.77
2023-05-14T03:36:05.582Z,11.80
2023-05-14T03:39:07.332Z,11.75
2023-05-14T03:42:10.745Z,13.15
2023-05-14T03:45:12.996Z,11.30
2023-05-14T03:48:15.267Z,10.85
2023-05-14T03:51:17.215Z,11.35
2023-05-14T03:54:19.063Z,9.70
2023-05-14T03:57:21.416Z,11.40
2023-05-14T04:00:23.464Z,10.45
2023-05-14T04:03:28.687Z,13.02
2023-05-14T04:06:33.097Z,12.18
2023-05-14T04:09:37.109Z,9.70
2023-05-14T04:12:38.801Z,11.35
2023-05-14T04:15:41.157Z,10.55
2023-05-14T04:18:43.234Z,10.82
2023-05-14T04:21:45.289Z,10.50
2023-05-14T04:24:47.279Z,10.02
2023-05-14T04:27:49.290Z,9.95
2023-05-14T04:30:51.886Z,12.68
2023-05-14T04:33:53.677Z,10.70
2023-05-14T04:36:56.045Z,9.00
2023-05-14T04:39:58.055Z,9.82
2023-05-14T04:43:00.228Z,9.20
2023-05-14T04:46:02.201Z,10.18
2023-05-14T04:49:04.423Z,9.20
2023-05-14T04:52:06.833Z,9.55
2023-05-14T04:55:09.361Z,9.68
2023-05-14T04:58:11.187Z,9.40
2023-05-14T05:01:13.221Z,11.70
2023-05-14T05:04:15.291Z,10.30
2023-05-14T05:07:18.421Z,8.32
2023-05-14T05:10:19.999Z,9.50
2023-05-14T05:13:21.888Z,8.65
2023-05-14T05:16:23.587Z,8.38
2023-05-14T05:19:35.846Z,8.48
2023-05-14T05:22:44.440Z,9.45
2023-05-14T05:25:46.419Z,9.13
2023-05-14T05:28:48.607Z,9.00
2023-05-14T05:31:50.444Z,10.05
2023-05-14T05:34:52.489Z,8.15
2023-05-14T05:37:54.230Z,8.02
2023-05-14T05:40:56.186Z,9.73
2023-05-14T05:43:58.160Z,8.05
2023-05-14T05:47:00.345Z,9.40
2023-05-14T05:50:02.147Z,11.35
2023-05-14T05:53:04.211Z,8.63
2023-05-14T05:56:06.802Z,9.68
2023-05-14T05:59:08.698Z,9.68
2023-05-14T06:02:10.927Z,8.23
2023-05-14T06:05:13.131Z,8.02
2023-05-14T06:08:15.013Z,8.55
2023-05-14T06:11:18.121Z,8.13
2023-05-14T06:14:19.888Z,9.15
2023-05-14T06:17:21.938Z,10.43
2023-05-14T06:20:23.985Z,8.98
2023-05-14T06:23:26.794Z,8.57
2023-05-14T06:26:28.804Z,9.43
2023-05-14T06:29:30.614Z,9.23
2023-05-14T06:32:32.867Z,8.43
2023-05-14T06:35:34.696Z,9.50
2023-05-14T06:38:36.812Z,8.13
2023-05-14T06:41:38.554Z,9.32
2023-05-14T06:44:41.209Z,9.52
2023-05-14T06:47:43.392Z,8.55
2023-05-14T06:50:46.135Z,10.50
2023-05-14T06:53:48.934Z,8.60
2023-05-14T06:56:50.868Z,7.88
2023-05-14T06:59:53.030Z,7.88
2023-05-14T07:02:54.921Z,7.97
2023-05-14T07:05:57.160Z,9.52
2023-05-14T07:08:59.881Z,9.50
2023-05-14T07:12:01.860Z,9.55
2023-05-14T07:15:04.270Z,8.38
2023-05-14T07:18:06.425Z,9.93
2023-05-14T07:21:08.471Z,8.85
2023-05-14T07:24:10.291Z,9.88
2023-05-14T07:27:12.570Z,8.73
2023-05-14T07:30:15.765Z,8.18
2023-05-14T07:33:18.306Z,9.20
2023-05-14T07:36:20.274Z,8.07
2023-05-14T07:39:23.221Z,7.65
2023-05-14T07:42:35.399Z,7.60
2023-05-14T07:45:41.643Z,7.22
2023-05-14T07:48:44.110Z,8.68
2023-05-14T07:51:45.862Z,8.55
2023-05-14T07:54:49.415Z,7.68
2023-05-14T07:57:52.530Z,8.90
2023-05-14T08:00:54.384Z,9.18
2023-05-14T08:03:56.426Z,6.80
2023-05-14T08:06:58.431Z,7.68
2023-05-14T08:10:00.605Z,9.43
2023-05-14T08:13:03.268Z,7.57
2023-05-14T08:16:05.599Z,8.25
2023-05-14T08:19:07.723Z,8.48
2023-05-14T08:22:09.757Z,8.98
2023-05-14T08:25:12.098Z,7.45
2023-05-14T08:28:14.100Z,7.72
2023-05-14T08:31:16.191Z,7.78
2023-05-14T08:34:18.485Z,7.82
2023-05-14T08:37:20.674Z,6.93
2023-05-14T08:40:23.384Z,6.85
2023-05-14T08:43:46.215Z,6.57
2023-05-14T08:46:50.373Z,6.10
2023-05-14T08:50:06.419Z,5.40
2023-05-14T08:53:08.547Z,4.40
2023-05-14T08:56:10.715Z,4.40
2023-05-14T08:59:13.295Z,6.40
2023-05-14T09:02:17.585Z,9.85
2023-05-14T09:05:21.181Z,7.50
2023-05-14T09:08:23.512Z,5.15
2023-05-14T09:11:25.508Z,5.28
2023-05-14T09:14:27.531Z,6.40
2023-05-14T09:17:29.911Z,5.50
2023-05-14T09:20:32.809Z,6.00
2023-05-14T09:23:35.165Z,6.65
2023-05-14T09:26:37.282Z,5.47
2023-05-14T09:29:39.470Z,5.75
2023-05-14T09:32:44.672Z,6.25
2023-05-14T09:35:47.799Z,7.88
2023-05-14T09:38:49.847Z,5.05
2023-05-14T09:41:52.201Z,6.85
2023-05-14T09:44:54.107Z,5.35
2023-05-14T09:47:56.638Z,4.90
2023-05-14T09:50:58.753Z,4.68
2023-05-14T09:54:01.108Z,8.18
2023-05-14T09:57:03.357Z,5.72
2023-05-14T10:00:05.840Z,5.65
2023-05-14T10:03:08.497Z,4.97
2023-05-14T10:06:13.305Z,4.40
2023-05-14T10:09:19.197Z,5.20
2023-05-14T10:12:23.569Z,4.25
2023-05-14T10:15:37.300Z,5.57
2023-05-14T10:18:48.530Z,4.30
2023-05-14T10:21:57.064Z,4.45
2023-05-14T10:24:59.367Z,7.43
2023-05-14T10:28:01.887Z,5.78
2023-05-14T10:31:04.103Z,4.90
2023-05-14T10:34:42.717Z,5.53
2023-05-14T10:37:46.287Z,5.32
2023-05-14T10:40:48.384Z,5.57
2023-05-14T10:43:50.778Z,4.88
2023-05-14T10:46:53.422Z,5.13
2023-05-14T10:50:05.413Z,6.57
2023-05-14T10:53:13.012Z,5.07
2023-05-14T10:56:14.844Z,5.60
2023-05-14T10:59:27.547Z,5.68
2023-05-14T11:02:36.941Z,5.10
2023-05-14T11:05:41.767Z,6.68
2023-05-14T11:08:44.882Z,6.85
2023-05-14T11:11:48.156Z,4.97
2023-05-14T11:14:50.869Z,7.05
2023-05-14T11:17:54.011Z,4.70
2023-05-14T11:21:03.113Z,7.85
2023-05-14T11:24:05.700Z,5.38
2023-05-14T11:27:09.417Z,5.30
2023-05-14T11:30:22.029Z,5.35
2023-05-14T11:33:23.996Z,4.68
2023-05-14T11:36:26.052Z,6.00
2023-05-14T11:39:28.229Z,5.78
2023-05-14T11:42:30.081Z,4.80
2023-05-14T11:45:33.426Z,4.50
2023-05-14T11:48:35.574Z,7.00
2023-05-14T11:51:37.515Z,4.57
2023-05-14T11:54:39.365Z,5.10
2023-05-14T11:57:41.728Z,6.07
2023-05-14T12:00:45.730Z,4.35
2023-05-14T12:03:47.455Z,6.43
2023-05-14T12:06:50.177Z,5.88
2023-05-14T12:09:52.419Z,5.18
2023-05-14T12:12:54.476Z,6.05
2023-05-14T12:15:58.831Z,4.68
2023-05-14T12:19:01.914Z,4.43
2023-05-14T12:22:03.846Z,5.50
2023-05-14T12:25:12.596Z,4.20
2023-05-14T12:28:20.888Z,5.63
2023-05-14T12:31:38.648Z,3.80
2023-05-14T12:34:40.433Z,3.95
2023-05-14T12:37:43.016Z,4.97
2023-05-14T12:40:45.268Z,6.47
2023-05-14T12:43:49.790Z,6.47
2023-05-14T12:46:51.993Z,5.97
2023-05-14T12:49:54.347Z,4.25
2023-05-14T12:52:56.382Z,3.83
2023-05-14T12:55:58.647Z,4.00
2023-05-14T12:59:00.575Z,3.92
2023-05-14T13:02:02.656Z,5.03
2023-05-14T13:05:05.177Z,4.05
2023-05-14T13:08:07.434Z,3.92
2023-05-14T13:11:16.887Z,4.35
2023-05-14T13:14:20.153Z,5.68
2023-05-14T13:17:23.423Z,5.22
2023-05-14T13:20:27.298Z,4.38
2023-05-14T13:23:29.384Z,4.38
2023-05-14T13:26:31.669Z,3.70
2023-05-14T13:29:33.759Z,4.25
2023-05-14T13:32:36.004Z,3.35
2023-05-14T13:35:38.467Z,4.80
2023-05-14T13:38:40.550Z,3.65
2023-05-14T13:41:43.006Z,3.25
2023-05-14T13:44:45.217Z,6.68
2023-05-14T13:47:51.614Z,4.85
2023-05-14T13:50:56.846Z,8.90
2023-05-14T13:53:59.208Z,4.30
2023-05-14T13:57:01.430Z,4.70
2023-05-14T14:00:05.067Z,3.30
2023-05-14T14:03:08.569Z,5.50
2023-05-14T14:06:10.978Z,3.45
2023-05-14T14:09:13.991Z,3.60
2023-05-14T14:12:16.141Z,3.55
2023-05-14T14:15:21.324Z,5.03
2023-05-14T14:18:23.373Z,3.40
2023-05-14T14:21:25.798Z,5.45
2023-05-14T14:24:31.557Z,3.78
2023-05-14T14:27:36.452Z,5.60
2023-05-14T14:30:41.772Z,4.05
2023-05-14T14:33:47.284Z,4.65
2023-05-14T14:36:49.702Z,5.90
2023-05-14T14:39:51.856Z,4.10
2023-05-14T14:42:53.907Z,4.28
2023-05-14T14:45:55.867Z,4.38
2023-05-14T14:48:58.027Z,5.78
2023-05-14T14:52:00.468Z,3.92
2023-05-14T14:55:04.023Z,4.07
2023-05-14T14:58:06.249Z,4.25
2023-05-14T15:01:08.431Z,3.58
2023-05-14T15:04:10.693Z,4.63
2023-05-14T15:07:13.060Z,3.78
2023-05-14T15:10:15.626Z,4.93
2023-05-14T15:13:17.671Z,3.58
2023-05-14T15:16:19.802Z,4.93
2023-05-14T15:19:22.272Z,5.47
2023-05-14T15:22:24.524Z,4.18
2023-05-14T15:25:27.016Z,4.18
2023-05-14T15:28:29.105Z,5.05
2023-05-14T15:31:32.337Z,6.95
2023-05-14T15:34:34.451Z,6.80
2023-05-14T15:37:44.771Z,4.20
2023-05-14T15:40:47.254Z,5.72
2023-05-14T15:43:48.955Z,5.95
2023-05-14T15:46:53.934Z,3.15
2023-05-14T15:49:56.504Z,4.03
2023-05-14T15:53:00.263Z,5.95
2023-05-14T15:56:03.455Z,4.60
2023-05-14T15:59:08.631Z,4.13
2023-05-14T16:02:14.713Z,14.82
2023-05-14T16:05:16.838Z,5.90
2023-05-14T16:08:18.949Z,4.07
2023-05-14T16:11:21.500Z,42.80
2023-05-14T16:14:24.055Z,32.45
2023-05-14T16:17:33.049Z,7.93
2023-05-14T16:20:35.551Z,3.45
2023-05-14T16:23:37.769Z,2.63
2023-05-14T16:26:40.571Z,2.85
2023-05-14T16:29:42.740Z,3.28
2023-05-14T16:32:51.543Z,2.88
2023-05-14T16:35:55.378Z,4.00
2023-05-14T16:39:07.485Z,3.03
2023-05-14T16:42:10.810Z,3.92
2023-05-14T16:45:13.418Z,3.33
2023-05-14T16:48:16.525Z,4.55
2023-05-14T16:51:18.941Z,4.15
2023-05-14T16:54:21.887Z,2.75
2023-05-14T16:57:23.868Z,3.63
2023-05-14T17:00:28.493Z,4.55
2023-05-14T17:03:30.781Z,26.20
2023-05-14T17:06:33.198Z,20.98
2023-05-14T17:09:35.860Z,6.40
2023-05-14T17:12:40.273Z,8.05
2023-05-14T17:15:42.749Z,2.60
2023-05-14T17:18:45.881Z,2.83
2023-05-14T17:21:50.475Z,2.75
2023-05-14T17:24:52.487Z,2.90
2023-05-14T17:28:00.853Z,6.28
2023-05-14T17:31:02.623Z,2.95
2023-05-14T17:34:04.732Z,2.83
2023-05-14T17:37:07.077Z,2.70
2023-05-14T17:40:12.305Z,4.70
2023-05-14T17:43:16.905Z,4.25
2023-05-14T17:46:19.078Z,2.67
2023-05-14T17:49:21.552Z,4.78
2023-05-14T17:52:23.844Z,5.40
2023-05-14T17:55:26.827Z,3.17
2023-05-14T17:58:28.933Z,4.45
2023-05-14T18:01:31.393Z,4.30
2023-05-14T18:04:33.371Z,4.68
2023-05-14T18:07:39.598Z,3.17
2023-05-14T18:10:41.732Z,4.65
2023-05-14T18:13:43.712Z,4.50
2023-05-14T18:16:47.768Z,2.95
2023-05-14T18:19:49.711Z,3.20
2023-05-14T18:22:52.639Z,2.90
2023-05-14T18:25:54.585Z,3.63
2023-05-14T18:28:58.046Z,3.45
2023-05-14T18:32:01.115Z,4.13
2023-05-14T18:35:07.893Z,6.65
2023-05-14T18:38:11.994Z,3.90
2023-05-14T18:41:13.897Z,3.38
2023-05-14T18:44:16.239Z,4.80
2023-05-14T18:47:18.829Z,4.10
2023-05-14T18:50:20.747Z,3.60
2023-05-14T18:53:22.807Z,3.58
2023-05-14T18:56:25.534Z,5.30
2023-05-14T18:59:27.635Z,5.07
2023-05-14T19:02:33.388Z,3.72
2023-05-14T19:05:35.970Z,3.97
2023-05-14T19:08:38.274Z,4.32
2023-05-14T19:11:40.401Z,4.32
2023-05-14T19:14:42.273Z,4.35
2023-05-14T19:17:46.920Z,3.80
2023-05-14T19:20:50.684Z,3.78
2023-05-14T19:23:52.864Z,3.90
2023-05-14T19:26:54.887Z,7.63
2023-05-14T19:29:57.691Z,5.53
2023-05-14T19:33:00.058Z,4.57
2023-05-14T19:36:02.254Z,4.13
2023-05-14T19:39:04.845Z,4.63
2023-05-14T19:42:07.425Z,4.15
2023-05-14T19:45:10.304Z,4.47
2023-05-14T19:48:13.703Z,4.35
2023-05-14T19:51:16.700Z,4.35
2023-05-14T19:54:18.696Z,7.22
2023-05-14T19:57:20.744Z,5.50
2023-05-14T20:00:22.945Z,5.88
2023-05-14T20:03:27.826Z,4.90
2023-05-14T20:06:29.884Z,4.82
2023-05-14T20:09:34.479Z,5.53
2023-05-14T20:12:36.327Z,5.78
2023-05-14T20:15:41.056Z,4.78
2023-05-14T20:18:44.106Z,4.85
2023-05-14T20:21:46.005Z,5.43
2023-05-14T20:24:47.873Z,4.43
2023-05-14T20:27:50.873Z,5.15
2023-05-14T20:30:59.059Z,4.85
2023-05-14T20:34:00.984Z,4.75
2023-05-14T20:37:05.366Z,5.95
2023-05-14T20:40:10.589Z,4.40
2023-05-14T20:43:15.054Z,5.00
2023-05-14T20:46:17.355Z,4.90
2023-05-14T20:49:19.294Z,6.25
2023-05-14T20:52:24.382Z,8.32
2023-05-14T20:55:26.832Z,5.57
2023-05-14T20:58:29.949Z,5.13
2023-05-14T21:01:33.004Z,4.95
2023-05-14T21:04:35.233Z,5.53
2023-05-14T21:07:39.568Z,5.95
2023-05-14T21:10:41.548Z,5.30
2023-05-14T21:13:44.645Z,6.82
2023-05-14T21:16:46.996Z,5.38
2023-05-14T21:19:49.486Z,6.28
2023-05-14T21:22:51.892Z,5.38
2023-05-14T21:25:57.035Z,6.13
2023-05-14T21:28:59.887Z,5.55
2023-05-14T21:32:02.199Z,6.55
2023-05-14T21:35:05.428Z,7.10
2023-05-14T21:38:08.841Z,6.03
2023-05-14T21:41:11.315Z,7.80
2023-05-14T21:44:16.306Z,6.82
2023-05-14T21:47:18.578Z,7.75
2023-05-14T21:50:22.764Z,7.75
2023-05-14T21:53:24.528Z,7.32
2023-05-14T21:56:29.477Z,6.68
2023-05-14T21:59:31.317Z,6.68
2023-05-14T22:02:33.397Z,6.80
2023-05-14T22:05:36.486Z,6.85
2023-05-14T22:08:38.535Z,6.30
2023-05-14T22:11:40.455Z,5.93
2023-05-14T22:14:42.498Z,8.60
2023-05-14T22:17:44.467Z,6.45
2023-05-14T22:20:46.507Z,6.93
2023-05-14T22:23:52.715Z,6.78
2023-05-14T22:26:56.848Z,6.03
2023-05-14T22:29:58.897Z,6.53
2023-05-14T22:33:03.491Z,6.70
2023-05-14T22:36:07.509Z,8.07
2023-05-14T22:39:11.339Z,8.50
2023-05-14T22:42:14.879Z,6.88
2023-05-14T22:45:17.901Z,6.45
2023-05-14T22:48:20.410Z,7.60
2023-05-14T22:51:22.471Z,6.43
2023-05-14T22:54:24.486Z,7.60
2023-05-14T22:57:26.664Z,8.82
2023-05-14T23:00:28.461Z,6.28
2023-05-14T23:03:30.788Z,7.20
2023-05-14T23:06:33.009Z,7.90
2023-05-14T23:09:34.841Z,7.60
2023-05-14T23:12:36.955Z,9.20
2023-05-14T23:15:38.844Z,8.80
2023-05-14T23:18:40.790Z,7.03
2023-05-14T23:21:42.880Z,10.25
2023-05-14T23:24:45.272Z,8.77
2023-05-14T23:27:48.067Z,13.02
2023-05-14T23:30:52.984Z,8.95
2023-05-14T23:34:02.087Z,11.32
2023-05-14T23:37:04.579Z,9.85
2023-05-14T23:40:07.480Z,11.25
2023-05-14T23:43:09.298Z,9.63
2023-05-14T23:46:11.881Z,9.02
2023-05-14T23:49:13.840Z,12.00
2023-05-14T23:52:15.903Z,9.45
2023-05-14T23:55:18.080Z,12.63
2023-05-14T23:58:19.761Z,9.27
